Time;durP1;ratioP1;P1;durP2;ratioP2;P2;SDS_P1;SDS_P2;PMS_P1;PMS_P2;Temp;Humidity;BMP_temperature;BMP_pressure;BME280_temperature;BME280_humidity;BME280_pressure;Samples;Min_cycle;Max_cycle;Signal;HPM_P1;HPM_P2
2023/03/05 00:01:18;;;;;;;12.10;7.72;;;6.00;99.90;;;;;;5036650;28;20033;-75
2023/03/05 00:03:45;;;;;;;13.25;7.20;;;6.00;99.90;;;;;;5032124;28;20060;-74
2023/03/05 00:06:11;;;;;;;9.60;7.05;;;6.00;99.90;;;;;;5025989;28;20025;-74
2023/03/05 00:08:37;;;;;;;12.48;7.30;;;6.00;99.90;;;;;;5037233;28;20509;-75
2023/03/05 00:11:04;;;;;;;12.70;6.82;;;6.00;99.90;;;;;;5021817;28;20056;-75
2023/03/05 00:13:31;;;;;;;12.70;7.55;;;6.00;99.90;;;;;;5023590;28;20055;-75
2023/03/05 00:15:56;;;;;;;14.23;7.68;;;6.00;99.90;;;;;;5017955;28;20128;-74
2023/03/05 00:18:22;;;;;;;11.40;7.63;;;6.00;99.90;;;;;;5037865;28;20441;-74
2023/03/05 00:20:48;;;;;;;13.02;7.63;;;6.00;99.40;;;;;;5036826;28;20389;-76
2023/03/05 00:23:14;;;;;;;12.57;6.53;;;6.10;99.90;;;;;;5038167;28;20044;-76
2023/03/05 00:25:40;;;;;;;10.52;6.68;;;6.00;99.90;;;;;;5019692;28;20032;-75
2023/03/05 00:28:06;;;;;;;11.35;6.90;;;6.00;99.90;;;;;;5038195;28;20039;-75
2023/03/05 00:30:33;;;;;;;11.25;7.15;;;6.00;99.20;;;;;;5035703;28;20029;-74
2023/03/05 00:32:59;;;;;;;12.38;7.38;;;6.00;99.90;;;;;;5049034;28;20042;-75
2023/03/05 00:35:25;;;;;;;8.52;6.35;;;6.00;99.80;;;;;;5023037;28;20154;-74
2023/03/05 00:37:51;;;;;;;8.85;6.70;;;6.00;98.60;;;;;;5038048;28;20110;-75
2023/03/05 00:40:17;;;;;;;13.10;7.78;;;6.00;99.80;;;;;;5030747;28;20082;-75
2023/03/05 00:42:43;;;;;;;9.73;7.22;;;5.90;98.80;;;;;;5038468;28;20035;-74
2023/03/05 00:45:09;;;;;;;11.25;7.75;;;5.90;99.20;;;;;;5020570;28;20460;-75
2023/03/05 00:47:35;;;;;;;14.20;7.72;;;5.90;98.90;;;;;;5038154;28;20033;-76
2023/03/05 00:50:01;;;;;;;12.45;7.68;;;5.90;99.90;;;;;;5021771;28;20095;-74
2023/03/05 00:52:27;;;;;;;12.60;8.07;;;6.00;99.00;;;;;;5010759;28;20033;-76
2023/03/05 00:54:53;;;;;;;13.52;7.95;;;6.00;99.90;;;;;;5027082;28;20040;-75
2023/03/05 00:57:18;;;;;;;11.40;8.00;;;5.90;99.90;;;;;;5020017;28;20025;-74
2023/03/05 00:59:44;;;;;;;14.75;8.18;;;6.00;99.90;;;;;;5037457;28;20476;-75
2023/03/05 01:02:10;;;;;;;13.05;8.60;;;6.00;99.90;;;;;;5037039;28;20036;-74
2023/03/05 01:04:36;;;;;;;13.82;8.95;;;6.00;99.90;;;;;;5015044;28;20049;-75
2023/03/05 01:07:01;;;;;;;13.18;8.30;;;5.90;99.90;;;;;;5047129;28;20509;-75
2023/03/05 01:09:27;;;;;;;13.13;8.63;;;5.90;99.90;;;;;;5027794;28;20337;-74
2023/03/05 01:11:53;;;;;;;15.25;8.90;;;5.90;99.90;;;;;;5037667;28;20423;-75
2023/03/05 01:14:19;;;;;;;14.30;8.50;;;5.90;99.90;;;;;;5019385;28;20110;-74
2023/03/05 01:16:46;;;;;;;17.40;8.48;;;5.90;99.90;;;;;;5008946;28;20038;-75
2023/03/05 01:19:13;;;;;;;15.75;8.77;;;5.90;99.90;;;;;;5029867;28;20035;-76
2023/03/05 01:21:39;;;;;;;14.30;8.68;;;5.90;99.90;;;;;;5038290;28;20284;-75
2023/03/05 01:24:05;;;;;;;13.82;8.18;;;5.90;99.90;;;;;;5047654;28;20029;-76
2023/03/05 01:26:31;;;;;;;14.48;8.43;;;5.80;99.90;;;;;;5037676;28;20029;-74
2023/03/05 01:28:56;;;;;;;14.57;8.18;;;5.80;99.90;;;;;;5036635;28;20033;-74
2023/03/05 01:31:22;;;;;;;15.15;8.77;;;5.80;99.90;;;;;;5023603;28;20033;-74
2023/03/05 01:33:51;;;;;;;13.90;8.38;;;5.70;99.90;;;;;;5035202;28;20419;-75
2023/03/05 01:36:17;;;;;;;13.10;7.72;;;5.70;99.90;;;;;;5032330;28;20189;-74
2023/03/05 01:38:44;;;;;;;14.10;8.57;;;5.70;99.90;;;;;;5000484;28;20037;-75
2023/03/05 01:41:11;;;;;;;14.27;8.45;;;5.70;99.90;;;;;;5003790;28;20029;-75
2023/03/05 01:43:37;;;;;;;17.45;8.18;;;5.60;99.90;;;;;;5038198;28;20045;-75
2023/03/05 01:46:12;;;;;;;15.43;7.88;;;5.60;99.90;;;;;;5020613;28;20039;-75
2023/03/05 01:48:41;;;;;;;16.55;8.40;;;5.60;99.90;;;;;;5023380;28;20033;-75
2023/03/05 01:51:07;;;;;;;15.88;8.00;;;5.50;99.90;;;;;;5040352;28;20040;-75
2023/03/05 01:53:33;;;;;;;13.27;8.02;;;5.50;99.90;;;;;;5028357;28;20906;-74
2023/03/05 01:55:58;;;;;;;11.50;7.65;;;5.50;99.90;;;;;;5009091;28;20029;-75
2023/03/05 01:58:24;;;;;;;11.80;7.93;;;5.50;99.90;;;;;;5048880;28;20235;-75
2023/03/05 02:00:53;;;;;;;16.13;8.43;;;5.50;99.90;;;;;;5022062;28;20029;-75
2023/03/05 02:03:19;;;;;;;15.05;7.72;;;5.50;99.90;;;;;;5042212;28;20041;-75
2023/03/05 02:05:45;;;;;;;12.60;8.73;;;5.60;99.90;;;;;;5037509;28;20033;-75
2023/03/05 02:08:14;;;;;;;14.40;8.48;;;5.60;99.90;;;;;;5023855;28;20423;-75
2023/03/05 02:10:46;;;;;;;12.95;8.27;;;5.60;99.90;;;;;;5041400;28;20489;-74
2023/03/05 02:13:24;;;;;;;16.17;8.55;;;5.60;99.90;;;;;;5021215;28;20032;-75
2023/03/05 02:15:51;;;;;;;15.85;7.80;;;5.60;99.90;;;;;;5041584;28;20075;-75
2023/03/05 02:18:18;;;;;;;13.60;8.43;;;5.60;99.90;;;;;;5019221;28;20330;-75
2023/03/05 02:20:55;;;;;;;12.75;8.02;;;5.60;99.90;;;;;;5021529;28;20025;-75
2023/03/05 02:23:24;;;;;;;11.63;7.68;;;5.60;99.90;;;;;;5023278;28;20133;-75
2023/03/05 02:25:50;;;;;;;16.50;8.30;;;5.60;99.90;;;;;;5021724;28;20033;-76
2023/03/05 02:28:27;;;;;;;12.45;8.38;;;5.60;99.90;;;;;;5037596;28;20381;-75
2023/03/05 02:30:52;;;;;;;12.85;7.95;;;5.50;99.90;;;;;;5030624;28;20037;-75
2023/03/05 02:33:19;;;;;;;15.65;8.25;;;5.50;99.90;;;;;;5045374;28;20114;-75
2023/03/05 02:35:45;;;;;;;13.10;7.70;;;5.50;99.90;;;;;;5024442;28;20029;-76
2023/03/05 02:38:16;;;;;;;11.45;7.15;;;5.60;99.90;;;;;;5040630;28;20252;-75
2023/03/05 02:40:42;;;;;;;14.80;8.00;;;5.60;99.90;;;;;;5041275;28;20056;-74
2023/03/05 02:43:08;;;;;;;13.35;7.95;;;5.60;99.90;;;;;;5040581;28;20116;-76
2023/03/05 02:45:34;;;;;;;12.40;7.57;;;5.50;99.90;;;;;;5039552;28;20033;-75
2023/03/05 02:47:59;;;;;;;12.63;7.63;;;5.50;99.90;;;;;;5024207;28;20031;-73
2023/03/05 02:50:27;;;;;;;16.50;8.50;;;5.50;99.90;;;;;;5052613;28;20515;-74
2023/03/05 02:52:53;;;;;;;10.30;7.57;;;5.60;99.90;;;;;;5039224;28;20551;-74
2023/03/05 02:55:18;;;;;;;13.45;7.82;;;5.50;99.90;;;;;;5022924;28;20120;-74
2023/03/05 02:57:44;;;;;;;12.45;8.43;;;5.50;99.90;;;;;;5036463;28;20033;-74
2023/03/05 03:00:10;;;;;;;15.20;7.88;;;5.40;99.90;;;;;;5040236;28;20116;-73
2023/03/05 03:02:36;;;;;;;15.95;8.55;;;5.40;99.90;;;;;;5039902;28;20122;-74
2023/03/05 03:05:02;;;;;;;11.68;7.82;;;5.30;99.90;;;;;;5038024;28;20044;-74
2023/03/05 03:07:27;;;;;;;13.48;8.05;;;5.30;99.90;;;;;;5039859;28;20029;-73
2023/03/05 03:09:53;;;;;;;15.57;7.57;;;5.30;99.90;;;;;;5039988;28;20064;-75
2023/03/05 03:12:19;;;;;;;13.70;8.00;;;5.30;99.90;;;;;;5021984;28;20194;-74
2023/03/05 03:14:44;;;;;;;13.55;7.80;;;5.30;99.90;;;;;;5038314;28;20032;-74
2023/03/05 03:17:17;;;;;;;17.90;8.88;;;5.30;99.90;;;;;;5035983;28;20114;-75
2023/03/05 03:19:44;;;;;;;15.35;8.68;;;5.30;99.90;;;;;;5014429;28;20709;-74
2023/03/05 03:22:12;;;;;;;11.45;8.10;;;5.30;99.90;;;;;;5035980;28;20035;-74
2023/03/05 03:24:39;;;;;;;12.95;8.32;;;5.30;99.90;;;;;;5036120;28;20972;-73
2023/03/05 03:27:05;;;;;;;12.95;7.68;;;5.30;99.90;;;;;;5036570;28;20105;-75
2023/03/05 03:29:31;;;;;;;14.30;7.93;;;5.30;99.90;;;;;;5032259;28;20037;-74
2023/03/05 03:31:57;;;;;;;15.90;8.18;;;5.30;99.90;;;;;;5039967;28;20078;-74
2023/03/05 03:34:23;;;;;;;14.85;8.63;;;5.30;99.90;;;;;;5039517;28;20430;-74
2023/03/05 03:36:49;;;;;;;13.45;8.65;;;5.20;99.90;;;;;;5036514;28;20036;-74
2023/03/05 03:39:16;;;;;;;14.80;8.10;;;5.10;99.90;;;;;;5037033;28;20048;-74
2023/03/05 03:41:49;;;;;;;14.70;8.13;;;5.10;99.90;;;;;;5035948;28;20365;-74
2023/03/05 03:44:16;;;;;;;11.45;7.97;;;5.10;99.90;;;;;;5032663;28;20541;-75
2023/03/05 03:46:45;;;;;;;13.18;8.25;;;5.10;99.90;;;;;;5039276;28;20479;-73
2023/03/05 03:49:18;;;;;;;18.35;8.63;;;5.10;99.90;;;;;;5040275;28;20044;-73
2023/03/05 03:51:45;;;;;;;11.68;8.13;;;5.10;99.90;;;;;;5038938;28;20090;-74
2023/03/05 03:54:12;;;;;;;14.50;8.15;;;5.10;99.90;;;;;;5038183;28;20032;-75
2023/03/05 03:56:38;;;;;;;13.80;8.35;;;5.00;99.90;;;;;;5047294;28;20483;-74
2023/03/05 03:59:03;;;;;;;14.52;8.38;;;4.90;99.90;;;;;;5044727;28;20112;-74
2023/03/05 04:01:29;;;;;;;15.55;8.80;;;5.00;99.90;;;;;;5039328;28;20411;-75
2023/03/05 04:03:54;;;;;;;19.00;8.05;;;4.90;99.90;;;;;;5039948;28;20064;-74
2023/03/05 04:06:20;;;;;;;15.15;8.88;;;4.90;99.90;;;;;;5032534;28;20034;-74
2023/03/05 04:08:46;;;;;;;11.98;8.50;;;5.00;99.90;;;;;;5037357;28;20040;-75
2023/03/05 04:11:11;;;;;;;18.17;11.30;;;4.90;99.90;;;;;;5038070;28;20056;-74
2023/03/05 04:13:37;;;;;;;21.08;12.13;;;5.00;99.90;;;;;;5020687;28;20051;-74
2023/03/05 04:16:03;;;;;;;22.25;12.18;;;4.90;99.90;;;;;;5039074;28;20037;-74
2023/03/05 04:18:28;;;;;;;21.42;11.60;;;4.80;99.90;;;;;;5034654;28;20068;-73
2023/03/05 04:20:54;;;;;;;21.13;11.63;;;4.80;99.90;;;;;;5037262;28;20017;-74
2023/03/05 04:23:20;;;;;;;25.88;12.73;;;4.80;99.90;;;;;;5039214;28;20104;-74
2023/03/05 04:25:45;;;;;;;20.88;11.82;;;4.80;99.90;;;;;;5038059;28;20024;-74
2023/03/05 04:28:11;;;;;;;18.25;11.88;;;4.80;99.90;;;;;;5037882;28;20037;-74
2023/03/05 04:30:37;;;;;;;20.35;12.43;;;4.90;99.90;;;;;;5015900;28;20410;-74
2023/03/05 04:33:03;;;;;;;19.58;11.88;;;4.90;99.90;;;;;;5019603;28;20155;-75
2023/03/05 04:35:29;;;;;;;16.70;10.18;;;5.00;99.90;;;;;;5031025;28;20124;-74
2023/03/05 04:37:54;;;;;;;15.20;9.98;;;4.90;99.90;;;;;;5036286;28;20087;-74
2023/03/05 04:40:20;;;;;;;14.60;8.93;;;4.90;99.90;;;;;;5037017;28;20060;-74
2023/03/05 04:42:46;;;;;;;16.65;8.55;;;4.90;99.90;;;;;;5033414;28;20420;-74
2023/03/05 04:45:11;;;;;;;11.15;8.40;;;4.90;99.90;;;;;;5016898;28;20047;-74
2023/03/05 04:47:37;;;;;;;14.35;7.93;;;4.90;99.90;;;;;;5044811;28;20333;-74
2023/03/05 04:50:04;;;;;;;11.52;7.25;;;4.90;99.90;;;;;;5029544;28;20396;-74
2023/03/05 04:52:30;;;;;;;17.42;8.60;;;4.90;99.90;;;;;;5035551;28;20072;-74
2023/03/05 04:54:56;;;;;;;14.85;8.70;;;4.80;99.90;;;;;;5014199;28;20131;-75
2023/03/05 04:57:21;;;;;;;14.30;7.40;;;4.80;99.90;;;;;;5029745;28;20039;-75
2023/03/05 04:59:47;;;;;;;16.30;7.70;;;4.80;99.90;;;;;;5038475;28;20372;-75
2023/03/05 05:02:13;;;;;;;12.27;8.20;;;4.80;99.90;;;;;;5037084;28;20407;-75
2023/03/05 05:04:39;;;;;;;14.57;8.10;;;4.80;99.90;;;;;;5020301;28;20045;-75
2023/03/05 05:07:06;;;;;;;10.88;7.90;;;4.80;99.90;;;;;;5030416;28;20516;-73
2023/03/05 05:09:32;;;;;;;11.15;8.02;;;4.80;99.90;;;;;;5013123;28;20032;-74
2023/03/05 05:11:58;;;;;;;14.48;8.48;;;4.80;99.90;;;;;;5038037;28;20242;-74
2023/03/05 05:14:23;;;;;;;15.60;8.70;;;4.80;99.90;;;;;;5038231;28;20078;-74
2023/03/05 05:16:49;;;;;;;14.90;7.05;;;4.80;99.90;;;;;;5036398;28;20433;-74
2023/03/05 05:19:15;;;;;;;10.98;7.88;;;4.80;99.90;;;;;;5031858;28;20435;-74
2023/03/05 05:21:41;;;;;;;15.23;8.18;;;4.70;99.90;;;;;;5020309;28;20519;-74
2023/03/05 05:24:07;;;;;;;13.23;7.47;;;4.80;99.90;;;;;;5024258;28;20035;-74
2023/03/05 05:26:33;;;;;;;13.45;7.80;;;4.80;99.90;;;;;;5041362;28;20115;-74
2023/03/05 05:28:58;;;;;;;14.18;7.70;;;4.80;99.90;;;;;;5040943;28;20082;-74
2023/03/05 05:31:24;;;;;;;16.15;8.10;;;4.70;99.90;;;;;;5012263;28;20412;-74
2023/03/05 05:33:50;;;;;;;12.93;7.93;;;4.80;99.90;;;;;;5022841;28;20067;-73
2023/03/05 05:36:18;;;;;;;16.02;8.07;;;4.60;99.90;;;;;;5038719;28;20057;-74
2023/03/05 05:38:44;;;;;;;19.08;9.82;;;4.60;99.90;;;;;;5047653;28;20086;-74
2023/03/05 05:41:13;;;;;;;16.95;9.27;;;4.60;99.90;;;;;;5023873;28;20065;-74
2023/03/05 05:43:39;;;;;;;14.38;9.43;;;4.50;99.90;;;;;;5021625;28;20060;-74
2023/03/05 05:46:08;;;;;;;23.38;10.15;;;4.60;99.90;;;;;;5012686;28;20502;-74
2023/03/05 05:48:35;;;;;;;19.10;10.88;;;4.60;99.90;;;;;;5039457;28;20041;-74
2023/03/05 05:51:22;;;;;;;24.40;14.30;;;4.60;99.90;;;;;;5039795;28;20064;-73
2023/03/05 05:53:48;;;;;;;27.52;15.55;;;4.60;99.90;;;;;;5031602;28;20555;-75
2023/03/05 05:56:15;;;;;;;24.48;15.52;;;4.60;99.90;;;;;;5040534;28;20036;-74
2023/03/05 05:58:43;;;;;;;23.20;14.38;;;4.60;99.90;;;;;;5041336;28;20032;-74
2023/03/05 06:01:27;;;;;;;23.45;13.18;;;4.60;99.90;;;;;;5038188;28;20033;-75
2023/03/05 06:03:53;;;;;;;14.95;9.60;;;4.60;99.90;;;;;;5026325;28;20048;-75
2023/03/05 06:06:20;;;;;;;15.32;8.63;;;4.60;99.90;;;;;;5038692;28;20025;-73
2023/03/05 06:08:46;;;;;;;20.77;10.55;;;4.60;99.90;;;;;;5027344;28;20061;-74
2023/03/05 06:11:13;;;;;;;17.20;9.98;;;4.60;99.90;;;;;;5010924;28;20341;-73
2023/03/05 06:13:39;;;;;;;16.27;9.93;;;4.60;99.90;;;;;;5046115;28;20487;-74
2023/03/05 06:16:11;;;;;;;16.35;10.23;;;4.60;99.90;;;;;;5039893;28;20065;-73
2023/03/05 06:18:37;;;;;;;20.58;11.02;;;4.60;99.90;;;;;;5039039;28;20025;-73
2023/03/05 06:21:06;;;;;;;18.55;11.77;;;4.70;99.90;;;;;;5031695;28;20055;-74
2023/03/05 06:23:32;;;;;;;19.00;12.38;;;4.70;99.90;;;;;;5006293;28;20095;-74
2023/03/05 06:25:59;;;;;;;22.13;12.73;;;4.70;99.90;;;;;;5019478;28;20029;-74
2023/03/05 06:28:25;;;;;;;22.50;13.27;;;4.70;99.90;;;;;;5034931;28;20048;-74
2023/03/05 06:30:58;;;;;;;18.23;12.25;;;4.70;99.90;;;;;;5032623;28;20037;-74
2023/03/05 06:33:24;;;;;;;22.50;11.45;;;4.70;99.90;;;;;;5017756;28;20025;-73
2023/03/05 06:35:49;;;;;;;15.77;9.80;;;4.60;99.90;;;;;;5035548;28;20430;-74
2023/03/05 06:38:15;;;;;;;15.45;9.60;;;4.60;99.90;;;;;;5036857;28;20102;-74
2023/03/05 06:40:40;;;;;;;17.10;8.38;;;4.60;99.90;;;;;;5039490;28;20037;-75
2023/03/05 06:43:06;;;;;;;13.27;7.82;;;4.60;99.90;;;;;;5037250;28;20020;-74
2023/03/05 06:45:32;;;;;;;14.90;8.02;;;4.60;99.90;;;;;;5036582;28;20484;-74
2023/03/05 06:47:57;;;;;;;14.48;8.57;;;4.60;99.90;;;;;;5035384;28;20077;-73
2023/03/05 06:50:23;;;;;;;13.15;8.23;;;4.60;99.90;;;;;;5016987;28;20048;-74
2023/03/05 06:52:49;;;;;;;11.10;7.82;;;4.60;99.90;;;;;;5019523;28;20356;-74
2023/03/05 06:55:16;;;;;;;11.35;7.95;;;4.60;99.90;;;;;;5021035;28;20045;-74
2023/03/05 06:57:41;;;;;;;12.05;7.07;;;4.70;99.90;;;;;;5028729;28;20104;-74
2023/03/05 07:00:09;;;;;;;12.68;7.50;;;4.60;99.90;;;;;;5031943;28;20457;-74
2023/03/05 07:02:36;;;;;;;13.75;7.97;;;4.70;99.90;;;;;;5034138;28;20503;-75
2023/03/05 07:05:01;;;;;;;13.35;7.70;;;4.70;99.90;;;;;;5037036;28;20043;-74
2023/03/05 07:07:27;;;;;;;11.52;7.63;;;4.70;99.90;;;;;;5025658;28;20484;-74
2023/03/05 07:09:53;;;;;;;14.20;8.27;;;4.70;99.90;;;;;;5021437;28;20728;-74
2023/03/05 07:12:18;;;;;;;14.07;8.35;;;4.70;99.90;;;;;;5020840;28;20373;-75
2023/03/05 07:14:44;;;;;;;14.52;8.45;;;4.70;99.90;;;;;;5032767;28;20470;-74
2023/03/05 07:17:09;;;;;;;13.20;7.90;;;4.60;99.90;;;;;;5037289;28;20033;-74
2023/03/05 07:19:36;;;;;;;16.23;9.10;;;4.70;99.90;;;;;;5037146;28;20037;-74
2023/03/05 07:22:02;;;;;;;14.60;8.75;;;4.70;99.90;;;;;;5040003;28;20021;-74
2023/03/05 07:24:28;;;;;;;15.80;8.68;;;4.70;99.90;;;;;;5037696;28;20457;-74
2023/03/05 07:26:58;;;;;;;17.88;8.80;;;4.70;99.90;;;;;;5036673;28;20713;-74
2023/03/05 07:29:26;;;;;;;17.00;8.90;;;4.80;99.90;;;;;;5017727;28;20098;-75
2023/03/05 07:31:52;;;;;;;14.63;9.50;;;4.90;99.90;;;;;;5033630;28;20041;-75
2023/03/05 07:34:18;;;;;;;19.13;10.73;;;5.00;99.90;;;;;;5032348;28;20052;-74
2023/03/05 07:36:45;;;;;;;21.02;11.73;;;5.00;99.90;;;;;;5039917;28;20031;-74
2023/03/05 07:39:11;;;;;;;20.92;11.63;;;5.10;99.90;;;;;;5022477;28;20116;-74
2023/03/05 07:41:38;;;;;;;18.45;11.20;;;5.10;99.90;;;;;;5021843;28;20071;-74
2023/03/05 07:44:03;;;;;;;16.25;9.57;;;5.10;99.90;;;;;;5038348;28;20064;-74
2023/03/05 07:46:32;;;;;;;16.33;9.07;;;5.10;99.90;;;;;;5035957;28;20064;-75
2023/03/05 07:48:58;;;;;;;16.42;9.35;;;5.10;99.90;;;;;;5039654;28;20025;-74
2023/03/05 07:51:26;;;;;;;17.55;9.18;;;5.20;99.90;;;;;;5038019;28;20126;-74
2023/03/05 07:53:53;;;;;;;13.20;8.35;;;5.20;99.90;;;;;;5022321;28;20567;-75
2023/03/05 07:56:34;;;;;;;20.25;9.88;;;5.30;99.90;;;;;;5047098;28;20033;-74
2023/03/05 07:59:03;;;;;;;16.38;8.65;;;5.30;99.90;;;;;;5031048;28;20043;-74
2023/03/05 08:01:30;;;;;;;16.20;8.75;;;5.40;99.90;;;;;;5019746;28;20040;-73
2023/03/05 08:03:55;;;;;;;12.98;8.68;;;5.40;99.90;;;;;;5035061;28;20072;-74
2023/03/05 08:06:21;;;;;;;13.48;8.73;;;5.40;99.90;;;;;;5035349;28;20033;-73
2023/03/05 08:08:47;;;;;;;20.05;9.07;;;5.50;99.90;;;;;;5037041;28;20044;-74
2023/03/05 08:11:14;;;;;;;15.18;8.70;;;5.60;99.90;;;;;;5022125;28;20049;-74
2023/03/05 08:13:41;;;;;;;18.55;9.32;;;5.60;98.50;;;;;;5036877;28;20526;-74
2023/03/05 08:16:18;;;;;;;14.13;8.57;;;5.70;97.30;;;;;;5037319;28;20365;-73
2023/03/05 08:18:45;;;;;;;17.70;9.15;;;5.70;96.30;;;;;;5012315;28;20059;-74
2023/03/05 08:21:28;;;;;;;14.85;8.70;;;5.80;96.40;;;;;;5036586;28;20025;-74
2023/03/05 08:23:57;;;;;;;29.65;13.90;;;5.80;96.00;;;;;;5017710;28;20074;-74
2023/03/05 08:26:25;;;;;;;21.98;9.98;;;5.90;97.20;;;;;;5042470;28;20076;-73
2023/03/05 08:28:51;;;;;;;15.60;9.13;;;6.00;95.30;;;;;;5044060;28;20033;-74
2023/03/05 08:31:21;;;;;;;16.42;9.15;;;6.00;94.60;;;;;;5036832;28;20052;-74
2023/03/05 08:33:48;;;;;;;14.80;8.80;;;6.00;93.50;;;;;;5014064;28;20110;-74
2023/03/05 08:36:14;;;;;;;19.92;9.15;;;6.10;93.60;;;;;;5035680;28;20056;-74
2023/03/05 08:38:40;;;;;;;15.45;8.82;;;6.10;93.70;;;;;;5034651;28;20118;-74
2023/03/05 08:41:06;;;;;;;15.38;9.10;;;6.20;93.40;;;;;;5033901;28;20032;-74
2023/03/05 08:43:32;;;;;;;16.20;8.63;;;6.20;93.90;;;;;;5020481;28;20029;-73
2023/03/05 08:46:00;;;;;;;15.48;9.02;;;6.20;92.70;;;;;;5035426;28;20061;-74
2023/03/05 08:48:26;;;;;;;15.88;8.93;;;6.20;91.80;;;;;;5037916;28;20033;-74
2023/03/05 08:50:52;;;;;;;14.05;8.63;;;6.30;91.70;;;;;;5019922;28;20037;-74
2023/03/05 08:53:17;;;;;;;13.60;8.73;;;6.20;91.70;;;;;;5038553;28;20029;-73
2023/03/05 08:55:43;;;;;;;19.25;9.85;;;6.30;92.00;;;;;;5021166;28;20044;-74
2023/03/05 08:58:09;;;;;;;15.65;8.73;;;6.40;92.60;;;;;;5013467;28;20028;-73
2023/03/05 09:00:34;;;;;;;18.63;9.43;;;6.40;90.40;;;;;;5032891;28;20029;-74
2023/03/05 09:03:00;;;;;;;17.52;9.60;;;6.50;90.90;;;;;;5044092;28;20044;-74
2023/03/05 09:05:26;;;;;;;13.50;8.65;;;6.70;91.60;;;;;;5032221;28;20033;-74
2023/03/05 09:07:51;;;;;;;19.20;9.40;;;6.70;88.30;;;;;;5034632;28;20111;-74
2023/03/05 09:10:17;;;;;;;13.68;8.63;;;6.80;87.70;;;;;;5012399;28;20090;-73
2023/03/05 09:12:43;;;;;;;16.08;9.07;;;6.90;85.70;;;;;;5001578;28;20489;-74
2023/03/05 09:15:10;;;;;;;13.70;8.63;;;6.90;83.60;;;;;;5018691;28;20040;-73
2023/03/05 09:17:37;;;;;;;14.15;8.50;;;6.70;79.50;;;;;;5001071;28;20034;-73
2023/03/05 09:20:05;;;;;;;16.08;8.90;;;6.80;83.50;;;;;;5043116;28;20363;-74
2023/03/05 09:22:31;;;;;;;15.95;9.05;;;6.90;80.40;;;;;;5019770;28;20025;-73
2023/03/05 09:24:56;;;;;;;15.30;8.65;;;7.00;80.90;;;;;;5036120;28;20037;-74
2023/03/05 09:27:22;;;;;;;16.90;9.02;;;7.10;83.50;;;;;;5039394;28;20053;-74
2023/03/05 09:29:48;;;;;;;16.52;9.18;;;7.20;81.50;;;;;;5018286;28;20053;-74
2023/03/05 09:32:14;;;;;;;14.32;8.82;;;7.20;81.30;;;;;;5033446;28;20083;-73
2023/03/05 09:34:40;;;;;;;13.07;8.63;;;7.20;80.00;;;;;;5033281;28;20536;-74
2023/03/05 09:37:06;;;;;;;12.70;8.25;;;7.20;78.90;;;;;;5042711;28;20064;-74
2023/03/05 09:39:32;;;;;;;14.82;8.32;;;7.40;79.60;;;;;;5035054;28;20059;-73
2023/03/05 09:42:16;;;;;;;13.48;8.23;;;7.40;76.30;;;;;;5037749;28;20586;-73
2023/03/05 09:44:50;;;;;;;11.77;8.50;;;7.60;71.90;;;;;;5033000;28;20021;-73
2023/03/05 09:47:44;;;;;;;13.55;7.70;;;7.60;68.90;;;;;;5036841;28;20159;-73
2023/03/05 09:50:31;;;;;;;10.52;7.63;;;7.80;68.00;;;;;;5026589;28;20052;-73
2023/03/05 09:53:03;;;;;;;13.00;7.90;;;8.00;70.00;;;;;;5027739;28;20699;-73
2023/03/05 09:55:35;;;;;;;12.02;8.07;;;8.20;66.10;;;;;;5001334;28;20041;-74
2023/03/05 09:58:10;;;;;;;12.38;7.65;;;8.30;64.70;;;;;;5014335;28;20031;-73
2023/03/05 10:00:46;;;;;;;12.63;7.88;;;8.40;62.90;;;;;;5018660;28;20033;-73
2023/03/05 10:03:29;;;;;;;12.85;7.55;;;8.60;62.30;;;;;;5013477;28;20308;-73
2023/03/05 10:06:22;;;;;;;11.82;7.85;;;8.50;60.00;;;;;;5035569;28;20041;-72
2023/03/05 10:08:52;;;;;;;13.25;7.80;;;8.70;60.20;;;;;;5032784;28;20031;-74
2023/03/05 10:11:33;;;;;;;13.65;7.20;;;8.70;59.80;;;;;;5028056;28;20063;-73
2023/03/05 10:14:00;;;;;;;12.52;7.72;;;9.00;59.60;;;;;;5025301;28;20057;-73
2023/03/05 10:16:44;;;;;;;12.40;7.70;;;9.10;58.00;;;;;;5027496;28;20033;-73
2023/03/05 10:19:26;;;;;;;12.50;7.43;;;9.40;56.30;;;;;;5036834;28;20035;-73
2023/03/05 10:22:01;;;;;;;14.65;7.68;;;9.10;57.10;;;;;;5039247;28;20554;-73
2023/03/05 10:24:46;;;;;;;13.80;8.07;;;9.50;57.60;;;;;;5027924;28;20107;-72
2023/03/05 10:27:41;;;;;;;13.52;7.88;;;9.30;56.90;;;;;;5020441;28;20581;-73
2023/03/05 10:30:28;;;;;;;11.77;7.75;;;9.80;55.40;;;;;;4980956;28;20064;-73
2023/03/05 10:33:12;;;;;;;13.18;7.30;;;9.30;56.10;;;;;;5020251;28;20569;-73
2023/03/05 10:35:56;;;;;;;12.50;7.72;;;9.60;55.70;;;;;;5024077;28;20212;-73
2023/03/05 10:38:43;;;;;;;12.00;7.55;;;9.80;54.70;;;;;;5024579;28;20122;-74
2023/03/05 10:41:40;;;;;;;12.27;7.45;;;9.90;54.60;;;;;;5020472;28;20047;-73
2023/03/05 10:44:17;;;;;;;10.93;7.50;;;9.80;53.70;;;;;;5023462;28;20090;-73
2023/03/05 10:46:45;;;;;;;12.45;8.15;;;9.80;54.80;;;;;;5017049;28;20025;-74
2023/03/05 10:49:23;;;;;;;14.07;8.02;;;10.00;55.20;;;;;;5003154;28;21666;-72
2023/03/05 10:52:07;;;;;;;10.48;7.38;;;10.10;53.80;;;;;;5001614;28;20041;-73
2023/03/05 10:54:34;;;;;;;9.73;7.35;;;10.30;53.40;;;;;;5027107;28;20025;-74
2023/03/05 10:57:22;;;;;;;10.85;7.43;;;10.50;53.70;;;;;;5028084;28;20522;-73
2023/03/05 10:59:59;;;;;;;10.45;7.82;;;10.50;52.90;;;;;;5026646;28;20040;-74
2023/03/05 11:02:25;;;;;;;13.38;8.05;;;10.20;52.90;;;;;;5010590;28;20025;-73
2023/03/05 11:04:52;;;;;;;10.90;7.13;;;9.80;54.50;;;;;;5032626;28;20069;-74
2023/03/05 11:07:17;;;;;;;12.80;7.90;;;9.80;55.20;;;;;;5017733;28;20032;-74
2023/03/05 11:10:21;;;;;;;13.10;7.78;;;10.00;53.90;;;;;;5017791;28;20033;-73
2023/03/05 11:12:47;;;;;;;11.88;7.85;;;10.20;55.10;;;;;;5025622;28;20555;-74
2023/03/05 11:15:22;;;;;;;10.60;7.40;;;10.00;54.10;;;;;;5019046;28;20119;-73
2023/03/05 11:18:05;;;;;;;11.35;8.05;;;10.20;55.00;;;;;;5037704;28;20033;-73
2023/03/05 11:20:34;;;;;;;15.60;9.30;;;10.10;54.60;;;;;;5038769;28;20092;-73
2023/03/05 11:23:03;;;;;;;14.23;8.32;;;10.10;54.50;;;;;;5020432;28;20182;-73
2023/03/05 11:25:29;;;;;;;12.40;7.40;;;9.80;53.10;;;;;;5019225;28;20043;-74
2023/03/05 11:27:56;;;;;;;13.00;7.90;;;9.80;54.60;;;;;;5041255;28;20033;-73
2023/03/05 11:30:25;;;;;;;12.65;8.60;;;10.10;54.00;;;;;;5029277;28;20152;-73
2023/03/05 11:33:12;;;;;;;15.73;9.02;;;10.30;53.40;;;;;;5032976;28;20025;-74
2023/03/05 11:35:40;;;;;;;13.63;8.75;;;10.20;52.40;;;;;;5032002;28;20656;-74
2023/03/05 11:38:24;;;;;;;12.98;8.75;;;10.60;52.00;;;;;;5038971;28;20027;-73
2023/03/05 11:40:52;;;;;;;11.20;7.78;;;11.10;52.20;;;;;;5019445;28;20091;-73
2023/03/05 11:43:20;;;;;;;13.52;8.55;;;11.60;52.20;;;;;;5018677;28;20454;-74
2023/03/05 11:45:49;;;;;;;13.73;8.30;;;11.70;48.60;;;;;;5037379;28;20037;-73
2023/03/05 11:48:36;;;;;;;11.00;8.60;;;11.30;48.00;;;;;;5035353;28;20057;-73
2023/03/05 11:51:11;;;;;;;10.70;7.97;;;11.10;48.40;;;;;;5002250;28;20076;-74
2023/03/05 11:53:38;;;;;;;12.32;8.40;;;11.20;47.40;;;;;;5055869;28;20388;-74
2023/03/05 11:56:15;;;;;;;11.10;8.38;;;10.90;50.30;;;;;;5043557;28;20107;-74
2023/03/05 11:58:52;;;;;;;13.27;8.32;;;10.90;50.70;;;;;;5021985;28;20602;-73
2023/03/05 12:01:21;;;;;;;10.73;8.02;;;11.10;50.60;;;;;;5006258;28;20029;-74
2023/03/05 12:03:48;;;;;;;12.73;7.95;;;11.20;49.50;;;;;;5017468;28;20392;-73
2023/03/05 12:06:26;;;;;;;12.82;8.15;;;11.30;49.60;;;;;;5020576;28;20033;-73
2023/03/05 12:08:55;;;;;;;13.57;8.00;;;11.20;49.10;;;;;;5022775;28;20029;-73
2023/03/05 12:11:30;;;;;;;12.52;8.55;;;11.20;50.30;;;;;;5060416;28;20050;-73
2023/03/05 12:14:05;;;;;;;13.65;8.57;;;11.40;50.70;;;;;;5004146;28;20068;-73
2023/03/05 12:16:45;;;;;;;12.73;8.30;;;11.60;48.40;;;;;;5033417;28;20521;-74
2023/03/05 12:19:17;;;;;;;12.77;8.57;;;11.80;47.60;;;;;;5040526;28;20082;-73
2023/03/05 12:21:47;;;;;;;11.73;8.25;;;11.80;47.30;;;;;;5039058;28;20032;-73
2023/03/05 12:24:22;;;;;;;12.45;8.25;;;11.80;47.70;;;;;;5024707;28;20025;-73
2023/03/05 12:27:02;;;;;;;14.15;8.68;;;11.90;49.30;;;;;;5039141;28;20107;-73
2023/03/05 12:29:40;;;;;;;12.65;8.68;;;12.20;48.40;;;;;;5040952;28;20108;-73
2023/03/05 12:32:33;;;;;;;13.05;9.25;;;12.60;46.60;;;;;;5019742;28;20045;-73
2023/03/05 12:35:21;;;;;;;12.65;8.55;;;13.20;44.80;;;;;;5034446;28;20032;-73
2023/03/05 12:37:50;;;;;;;12.07;8.48;;;13.10;42.30;;;;;;5022807;28;20025;-73
2023/03/05 12:40:30;;;;;;;11.90;8.88;;;13.00;40.30;;;;;;5019289;28;20147;-73
2023/03/05 12:43:02;;;;;;;12.10;8.02;;;13.20;44.60;;;;;;5025073;28;20037;-74
2023/03/05 12:45:30;;;;;;;11.82;8.68;;;13.10;39.70;;;;;;5043771;28;20036;-74
2023/03/05 12:47:55;;;;;;;12.20;8.35;;;12.20;41.60;;;;;;5037436;28;20140;-73
2023/03/05 12:50:27;;;;;;;13.00;8.75;;;12.20;43.20;;;;;;5026524;28;20064;-74
2023/03/05 12:52:55;;;;;;;14.20;9.20;;;12.40;41.80;;;;;;5035940;28;20037;-73
2023/03/05 12:55:32;;;;;;;12.48;9.07;;;12.10;43.10;;;;;;5034470;28;20797;-74